sensor_id;sensor_type;location;lat;lon;timestamp;temperature;humidity
74081;SHT31;62438;52.228;6.864;2022-12-07T00:00:39;4.25;99.99
74081;SHT31;62438;52.228;6.864;2022-12-07T00:02:39;4.22;99.96
74081;SHT31;62438;52.228;6.864;2022-12-07T00:04:40;4.17;99.99
74081;SHT31;62438;52.228;6.864;2022-12-07T00:06:42;4.11;99.99
74081;SHT31;62438;52.228;6.864;2022-12-07T00:08:43;4.05;99.99
74081;SHT31;62438;52.228;6.864;2022-12-07T00:10:44;4.01;99.99
74081;SHT31;62438;52.228;6.864;2022-12-07T00:12:44;3.98;99.99
74081;SHT31;62438;52.228;6.864;2022-12-07T00:14:46;3.90;99.99
74081;SHT31;62438;52.228;6.864;2022-12-07T00:16:49;3.79;99.99
74081;SHT31;62438;52.228;6.864;2022-12-07T00:18:50;3.79;99.99
74081;SHT31;62438;52.228;6.864;2022-12-07T00:20:51;3.77;99.99
74081;SHT31;62438;52.228;6.864;2022-12-07T00:22:51;3.73;99.99
74081;SHT31;62438;52.228;6.864;2022-12-07T00:24:51;3.63;99.99
74081;SHT31;62438;52.228;6.864;2022-12-07T00:26:52;3.58;99.99
74081;SHT31;62438;52.228;6.864;2022-12-07T00:28:57;3.56;99.99
74081;SHT31;62438;52.228;6.864;2022-12-07T00:31:06;3.62;99.99
74081;SHT31;62438;52.228;6.864;2022-12-07T00:33:06;3.76;99.99
74081;SHT31;62438;52.228;6.864;2022-12-07T00:35:07;3.74;99.99
74081;SHT31;62438;52.228;6.864;2022-12-07T00:37:08;3.79;99.99
74081;SHT31;62438;52.228;6.864;2022-12-07T00:39:08;3.72;99.99
74081;SHT31;62438;52.228;6.864;2022-12-07T00:41:14;3.69;99.99
74081;SHT31;62438;52.228;6.864;2022-12-07T00:43:15;3.63;99.99
74081;SHT31;62438;52.228;6.864;2022-12-07T00:45:15;3.52;99.99
74081;SHT31;62438;52.228;6.864;2022-12-07T00:47:19;3.53;99.99
74081;SHT31;62438;52.228;6.864;2022-12-07T00:49:19;3.46;99.99
74081;SHT31;62438;52.228;6.864;2022-12-07T00:51:21;3.45;99.99
74081;SHT31;62438;52.228;6.864;2022-12-07T00:53:22;3.34;99.99
74081;SHT31;62438;52.228;6.864;2022-12-07T00:55:22;3.29;99.99
74081;SHT31;62438;52.228;6.864;2022-12-07T00:57:23;3.28;99.99
74081;SHT31;62438;52.228;6.864;2022-12-07T00:59:23;3.26;99.99
74081;SHT31;62438;52.228;6.864;2022-12-07T01:01:25;3.29;99.99
74081;SHT31;62438;52.228;6.864;2022-12-07T01:03:26;3.36;99.99
74081;SHT31;62438;52.228;6.864;2022-12-07T01:05:26;3.39;99.99
74081;SHT31;62438;52.228;6.864;2022-12-07T01:07:27;3.42;99.99
74081;SHT31;62438;52.228;6.864;2022-12-07T01:09:27;3.45;99.99
74081;SHT31;62438;52.228;6.864;2022-12-07T01:11:29;3.38;99.99
74081;SHT31;62438;52.228;6.864;2022-12-07T01:13:31;3.34;99.99
74081;SHT31;62438;52.228;6.864;2022-12-07T01:15:31;3.32;99.99
74081;SHT31;62438;52.228;6.864;2022-12-07T01:17:32;3.34;99.99
74081;SHT31;62438;52.228;6.864;2022-12-07T01:19:32;3.34;99.99
74081;SHT31;62438;52.228;6.864;2022-12-07T01:21:34;3.29;99.99
74081;SHT31;62438;52.228;6.864;2022-12-07T01:23:36;3.25;99.99
74081;SHT31;62438;52.228;6.864;2022-12-07T01:25:37;3.31;99.99
74081;SHT31;62438;52.228;6.864;2022-12-07T01:27:37;3.24;99.99
74081;SHT31;62438;52.228;6.864;2022-12-07T01:29:38;3.31;99.99
74081;SHT31;62438;52.228;6.864;2022-12-07T01:31:38;3.36;99.99
74081;SHT31;62438;52.228;6.864;2022-12-07T01:33:39;3.32;99.99
74081;SHT31;62438;52.228;6.864;2022-12-07T01:35:39;3.38;99.99
74081;SHT31;62438;52.228;6.864;2022-12-07T01:37:40;3.36;99.99
74081;SHT31;62438;52.228;6.864;2022-12-07T01:39:40;3.32;99.99
74081;SHT31;62438;52.228;6.864;2022-12-07T01:41:41;3.25;99.99
74081;SHT31;62438;52.228;6.864;2022-12-07T01:46:08;3.25;99.99
74081;SHT31;62438;52.228;6.864;2022-12-07T01:48:10;3.15;99.99
74081;SHT31;62438;52.228;6.864;2022-12-07T01:50:11;3.16;99.99
74081;SHT31;62438;52.228;6.864;2022-12-07T01:52:21;3.22;99.99
74081;SHT31;62438;52.228;6.864;2022-12-07T01:54:23;3.21;99.99
74081;SHT31;62438;52.228;6.864;2022-12-07T01:56:26;3.29;99.99
74081;SHT31;62438;52.228;6.864;2022-12-07T01:58:28;3.32;99.99
74081;SHT31;62438;52.228;6.864;2022-12-07T02:00:29;3.28;99.99
74081;SHT31;62438;52.228;6.864;2022-12-07T02:02:33;3.32;99.99
74081;SHT31;62438;52.228;6.864;2022-12-07T02:04:35;3.35;99.99
74081;SHT31;62438;52.228;6.864;2022-12-07T02:06:36;3.40;99.99
74081;SHT31;62438;52.228;6.864;2022-12-07T02:08:37;3.42;99.99
74081;SHT31;62438;52.228;6.864;2022-12-07T02:10:38;3.43;99.99
74081;SHT31;62438;52.228;6.864;2022-12-07T02:12:38;3.34;99.99
74081;SHT31;62438;52.228;6.864;2022-12-07T02:14:39;3.19;99.99
74081;SHT31;62438;52.228;6.864;2022-12-07T02:19:18;3.26;99.99
74081;SHT31;62438;52.228;6.864;2022-12-07T02:29:13;3.11;99.99
74081;SHT31;62438;52.228;6.864;2022-12-07T02:31:19;3.00;99.99
74081;SHT31;62438;52.228;6.864;2022-12-07T02:33:41;3.08;99.99
74081;SHT31;62438;52.228;6.864;2022-12-07T02:35:54;3.09;99.99
74081;SHT31;62438;52.228;6.864;2022-12-07T02:40:24;3.03;99.99
74081;SHT31;62438;52.228;6.864;2022-12-07T02:42:32;3.04;99.99
74081;SHT31;62438;52.228;6.864;2022-12-07T02:44:34;3.09;99.99
74081;SHT31;62438;52.228;6.864;2022-12-07T02:46:41;3.14;99.99
74081;SHT31;62438;52.228;6.864;2022-12-07T02:48:43;3.21;99.99
74081;SHT31;62438;52.228;6.864;2022-12-07T02:50:51;3.31;99.99
74081;SHT31;62438;52.228;6.864;2022-12-07T02:52:52;3.25;99.99
74081;SHT31;62438;52.228;6.864;2022-12-07T02:54:52;3.25;99.99
74081;SHT31;62438;52.228;6.864;2022-12-07T03:03:25;3.21;99.99
74081;SHT31;62438;52.228;6.864;2022-12-07T03:15:05;3.19;99.99
74081;SHT31;62438;52.228;6.864;2022-12-07T03:17:13;3.14;99.99
74081;SHT31;62438;52.228;6.864;2022-12-07T03:19:20;3.16;99.99
74081;SHT31;62438;52.228;6.864;2022-12-07T03:21:26;3.18;99.99
74081;SHT31;62438;52.228;6.864;2022-12-07T03:23:28;3.22;99.99
74081;SHT31;62438;52.228;6.864;2022-12-07T03:25:29;3.24;99.99
74081;SHT31;62438;52.228;6.864;2022-12-07T03:27:40;3.29;99.99
74081;SHT31;62438;52.228;6.864;2022-12-07T03:29:50;3.28;99.99
74081;SHT31;62438;52.228;6.864;2022-12-07T03:31:58;3.28;99.73
74081;SHT31;62438;52.228;6.864;2022-12-07T03:34:18;3.28;99.63
74081;SHT31;62438;52.228;6.864;2022-12-07T03:36:34;3.24;99.61
74081;SHT31;62438;52.228;6.864;2022-12-07T03:38:42;3.18;99.72
74081;SHT31;62438;52.228;6.864;2022-12-07T03:40:49;3.08;99.74
74081;SHT31;62438;52.228;6.864;2022-12-07T03:42:51;2.95;99.98
74081;SHT31;62438;52.228;6.864;2022-12-07T03:44:53;2.84;99.99
74081;SHT31;62438;52.228;6.864;2022-12-07T03:47:04;2.87;99.99
74081;SHT31;62438;52.228;6.864;2022-12-07T03:51:22;2.77;99.99
74081;SHT31;62438;52.228;6.864;2022-12-07T03:53:46;2.70;99.99
74081;SHT31;62438;52.228;6.864;2022-12-07T03:55:49;2.58;99.99
74081;SHT31;62438;52.228;6.864;2022-12-07T03:57:52;2.54;99.99
74081;SHT31;62438;52.228;6.864;2022-12-07T03:59:55;2.53;99.99
74081;SHT31;62438;52.228;6.864;2022-12-07T04:02:02;2.45;99.99
74081;SHT31;62438;52.228;6.864;2022-12-07T04:04:03;2.54;99.99
74081;SHT31;62438;52.228;6.864;2022-12-07T04:06:04;2.54;99.99
74081;SHT31;62438;52.228;6.864;2022-12-07T04:08:05;2.52;99.99
74081;SHT31;62438;52.228;6.864;2022-12-07T04:10:05;2.49;99.99
74081;SHT31;62438;52.228;6.864;2022-12-07T04:12:06;2.43;99.99
74081;SHT31;62438;52.228;6.864;2022-12-07T04:14:07;2.42;99.99
74081;SHT31;62438;52.228;6.864;2022-12-07T04:16:19;2.56;99.99
74081;SHT31;62438;52.228;6.864;2022-12-07T04:18:20;2.57;99.99
74081;SHT31;62438;52.228;6.864;2022-12-07T04:20:20;2.68;99.99
74081;SHT31;62438;52.228;6.864;2022-12-07T04:22:21;2.79;99.99
74081;SHT31;62438;52.228;6.864;2022-12-07T04:24:21;2.81;99.99
74081;SHT31;62438;52.228;6.864;2022-12-07T04:26:22;2.81;99.99
74081;SHT31;62438;52.228;6.864;2022-12-07T04:28:23;2.87;99.99
74081;SHT31;62438;52.228;6.864;2022-12-07T04:30:23;2.85;99.99
74081;SHT31;62438;52.228;6.864;2022-12-07T04:32:24;2.85;99.99
74081;SHT31;62438;52.228;6.864;2022-12-07T04:34:24;2.90;99.99
74081;SHT31;62438;52.228;6.864;2022-12-07T04:36:25;2.91;99.99
74081;SHT31;62438;52.228;6.864;2022-12-07T04:38:25;2.93;99.99
74081;SHT31;62438;52.228;6.864;2022-12-07T04:40:25;2.91;99.99
74081;SHT31;62438;52.228;6.864;2022-12-07T04:42:27;2.95;99.99
74081;SHT31;62438;52.228;6.864;2022-12-07T04:44:28;2.97;99.99
74081;SHT31;62438;52.228;6.864;2022-12-07T04:46:31;2.98;99.99
74081;SHT31;62438;52.228;6.864;2022-12-07T04:48:32;2.94;99.99
74081;SHT31;62438;52.228;6.864;2022-12-07T04:50:32;2.97;99.99
74081;SHT31;62438;52.228;6.864;2022-12-07T04:52:32;2.94;99.99
74081;SHT31;62438;52.228;6.864;2022-12-07T04:54:33;2.85;99.99
74081;SHT31;62438;52.228;6.864;2022-12-07T04:56:33;2.85;99.99
74081;SHT31;62438;52.228;6.864;2022-12-07T04:58:35;2.74;99.99
74081;SHT31;62438;52.228;6.864;2022-12-07T05:00:35;2.74;99.99
74081;SHT31;62438;52.228;6.864;2022-12-07T05:02:36;2.68;99.99
74081;SHT31;62438;52.228;6.864;2022-12-07T05:04:36;2.61;99.99
74081;SHT31;62438;52.228;6.864;2022-12-07T05:06:37;2.54;99.99
74081;SHT31;62438;52.228;6.864;2022-12-07T05:08:37;2.39;99.99
74081;SHT31;62438;52.228;6.864;2022-12-07T05:10:38;2.49;99.99
74081;SHT31;62438;52.228;6.864;2022-12-07T05:12:38;2.50;99.99
74081;SHT31;62438;52.228;6.864;2022-12-07T05:14:39;2.54;99.99
74081;SHT31;62438;52.228;6.864;2022-12-07T05:16:40;2.64;99.99
74081;SHT31;62438;52.228;6.864;2022-12-07T05:18:41;2.79;99.99
74081;SHT31;62438;52.228;6.864;2022-12-07T05:20:42;2.77;99.99
74081;SHT31;62438;52.228;6.864;2022-12-07T05:22:42;2.83;99.99
74081;SHT31;62438;52.228;6.864;2022-12-07T05:24:43;2.80;99.99
74081;SHT31;62438;52.228;6.864;2022-12-07T05:26:44;2.83;99.99
74081;SHT31;62438;52.228;6.864;2022-12-07T05:28:44;2.84;99.99
74081;SHT31;62438;52.228;6.864;2022-12-07T05:30:45;2.85;99.99
74081;SHT31;62438;52.228;6.864;2022-12-07T05:32:45;2.74;99.95
74081;SHT31;62438;52.228;6.864;2022-12-07T05:34:46;2.66;99.99
74081;SHT31;62438;52.228;6.864;2022-12-07T05:36:46;2.60;99.99
74081;SHT31;62438;52.228;6.864;2022-12-07T05:38:47;2.56;99.99
74081;SHT31;62438;52.228;6.864;2022-12-07T05:40:48;2.56;99.99
74081;SHT31;62438;52.228;6.864;2022-12-07T05:42:48;2.58;99.99
74081;SHT31;62438;52.228;6.864;2022-12-07T05:44:49;2.58;99.99
74081;SHT31;62438;52.228;6.864;2022-12-07T05:46:49;2.56;99.99
74081;SHT31;62438;52.228;6.864;2022-12-07T05:48:50;2.50;99.99
74081;SHT31;62438;52.228;6.864;2022-12-07T05:50:51;2.32;99.99
74081;SHT31;62438;52.228;6.864;2022-12-07T05:52:51;2.21;99.99
74081;SHT31;62438;52.228;6.864;2022-12-07T05:54:52;2.25;99.99
74081;SHT31;62438;52.228;6.864;2022-12-07T05:56:52;2.28;99.99
74081;SHT31;62438;52.228;6.864;2022-12-07T05:58:53;2.29;99.99
74081;SHT31;62438;52.228;6.864;2022-12-07T06:01:12;2.35;99.99
74081;SHT31;62438;52.228;6.864;2022-12-07T06:03:12;2.39;99.99
74081;SHT31;62438;52.228;6.864;2022-12-07T06:05:13;2.50;99.99
74081;SHT31;62438;52.228;6.864;2022-12-07T06:07:15;2.46;99.99
74081;SHT31;62438;52.228;6.864;2022-12-07T06:09:18;2.45;99.99
74081;SHT31;62438;52.228;6.864;2022-12-07T06:11:18;2.39;99.99
74081;SHT31;62438;52.228;6.864;2022-12-07T06:13:37;2.33;99.99
74081;SHT31;62438;52.228;6.864;2022-12-07T06:15:38;2.29;99.99
74081;SHT31;62438;52.228;6.864;2022-12-07T06:17:38;2.19;99.99
74081;SHT31;62438;52.228;6.864;2022-12-07T06:19:39;2.09;99.99
74081;SHT31;62438;52.228;6.864;2022-12-07T06:21:40;2.12;99.99
74081;SHT31;62438;52.228;6.864;2022-12-07T06:23:41;2.05;99.99
74081;SHT31;62438;52.228;6.864;2022-12-07T06:25:45;2.14;99.99
74081;SHT31;62438;52.228;6.864;2022-12-07T06:27:46;2.16;99.99
74081;SHT31;62438;52.228;6.864;2022-12-07T06:29:46;2.24;99.99
74081;SHT31;62438;52.228;6.864;2022-12-07T06:31:46;2.19;99.99
74081;SHT31;62438;52.228;6.864;2022-12-07T06:33:47;2.28;99.99
74081;SHT31;62438;52.228;6.864;2022-12-07T06:35:47;2.24;99.99
74081;SHT31;62438;52.228;6.864;2022-12-07T06:37:48;2.30;99.99
74081;SHT31;62438;52.228;6.864;2022-12-07T06:39:48;2.28;99.99
74081;SHT31;62438;52.228;6.864;2022-12-07T06:41:49;2.18;99.99
74081;SHT31;62438;52.228;6.864;2022-12-07T06:43:51;2.24;99.99
74081;SHT31;62438;52.228;6.864;2022-12-07T06:45:52;2.14;99.99
74081;SHT31;62438;52.228;6.864;2022-12-07T06:47:52;2.11;99.99
74081;SHT31;62438;52.228;6.864;2022-12-07T06:49:52;2.15;99.99
74081;SHT31;62438;52.228;6.864;2022-12-07T06:51:53;2.09;99.99
74081;SHT31;62438;52.228;6.864;2022-12-07T06:53:53;2.12;99.99
74081;SHT31;62438;52.228;6.864;2022-12-07T06:55:54;2.08;99.99
74081;SHT31;62438;52.228;6.864;2022-12-07T06:57:54;2.09;99.99
74081;SHT31;62438;52.228;6.864;2022-12-07T06:59:54;2.01;99.99
74081;SHT31;62438;52.228;6.864;2022-12-07T07:01:55;2.04;99.99
74081;SHT31;62438;52.228;6.864;2022-12-07T07:03:55;1.94;99.99
74081;SHT31;62438;52.228;6.864;2022-12-07T07:05:56;1.81;99.99
74081;SHT31;62438;52.228;6.864;2022-12-07T07:07:56;1.82;99.99
74081;SHT31;62438;52.228;6.864;2022-12-07T07:09:56;1.85;99.99
74081;SHT31;62438;52.228;6.864;2022-12-07T07:11:57;1.81;99.99
74081;SHT31;62438;52.228;6.864;2022-12-07T07:13:57;1.75;99.99
74081;SHT31;62438;52.228;6.864;2022-12-07T07:16:02;1.77;99.99
74081;SHT31;62438;52.228;6.864;2022-12-07T07:18:02;1.79;99.99
74081;SHT31;62438;52.228;6.864;2022-12-07T07:20:04;1.82;99.99
74081;SHT31;62438;52.228;6.864;2022-12-07T07:22:05;1.82;99.99
74081;SHT31;62438;52.228;6.864;2022-12-07T07:24:05;1.87;99.99
74081;SHT31;62438;52.228;6.864;2022-12-07T07:26:06;1.89;99.99
74081;SHT31;62438;52.228;6.864;2022-12-07T07:28:06;2.01;99.99
74081;SHT31;62438;52.228;6.864;2022-12-07T07:30:08;2.09;99.99
74081;SHT31;62438;52.228;6.864;2022-12-07T07:32:08;2.21;99.99
74081;SHT31;62438;52.228;6.864;2022-12-07T07:34:09;2.29;99.99
74081;SHT31;62438;52.228;6.864;2022-12-07T07:36:09;2.25;99.99
74081;SHT31;62438;52.228;6.864;2022-12-07T07:38:09;2.25;99.99
74081;SHT31;62438;52.228;6.864;2022-12-07T07:40:10;2.19;99.99
74081;SHT31;62438;52.228;6.864;2022-12-07T07:42:11;2.18;99.99
74081;SHT31;62438;52.228;6.864;2022-12-07T07:44:11;2.16;99.99
74081;SHT31;62438;52.228;6.864;2022-12-07T07:46:12;2.28;99.99
74081;SHT31;62438;52.228;6.864;2022-12-07T07:48:12;2.39;99.99
74081;SHT31;62438;52.228;6.864;2022-12-07T07:50:13;2.47;99.99
74081;SHT31;62438;52.228;6.864;2022-12-07T07:52:13;2.56;99.99
74081;SHT31;62438;52.228;6.864;2022-12-07T07:54:14;2.57;99.99
74081;SHT31;62438;52.228;6.864;2022-12-07T07:56:14;2.63;99.99
74081;SHT31;62438;52.228;6.864;2022-12-07T07:58:14;2.66;99.99
74081;SHT31;62438;52.228;6.864;2022-12-07T08:00:16;2.68;99.99
74081;SHT31;62438;52.228;6.864;2022-12-07T08:02:18;2.72;99.99
74081;SHT31;62438;52.228;6.864;2022-12-07T08:04:19;2.72;99.99
74081;SHT31;62438;52.228;6.864;2022-12-07T08:06:19;2.72;99.99
74081;SHT31;62438;52.228;6.864;2022-12-07T08:08:20;2.70;99.99
74081;SHT31;62438;52.228;6.864;2022-12-07T08:10:20;2.66;99.99
74081;SHT31;62438;52.228;6.864;2022-12-07T08:12:20;2.70;99.99
74081;SHT31;62438;52.228;6.864;2022-12-07T08:14:21;2.67;99.98
74081;SHT31;62438;52.228;6.864;2022-12-07T08:16:21;2.64;99.96
74081;SHT31;62438;52.228;6.864;2022-12-07T08:18:22;2.63;99.99
74081;SHT31;62438;52.228;6.864;2022-12-07T08:20:22;2.66;99.99
74081;SHT31;62438;52.228;6.864;2022-12-07T08:22:22;2.63;99.96
74081;SHT31;62438;52.228;6.864;2022-12-07T08:24:23;2.54;99.99
74081;SHT31;62438;52.228;6.864;2022-12-07T08:26:25;2.54;99.98
74081;SHT31;62438;52.228;6.864;2022-12-07T08:28:25;2.53;99.90
74081;SHT31;62438;52.228;6.864;2022-12-07T08:30:26;2.49;99.96
74081;SHT31;62438;52.228;6.864;2022-12-07T08:32:27;2.53;99.87
74081;SHT31;62438;52.228;6.864;2022-12-07T08:34:27;2.54;99.74
74081;SHT31;62438;52.228;6.864;2022-12-07T08:36:28;2.50;99.92
74081;SHT31;62438;52.228;6.864;2022-12-07T08:38:31;2.54;99.85
74081;SHT31;62438;52.228;6.864;2022-12-07T08:40:31;2.50;99.83
74081;SHT31;62438;52.228;6.864;2022-12-07T08:42:32;2.45;99.99
74081;SHT31;62438;52.228;6.864;2022-12-07T08:44:37;2.47;99.99
74081;SHT31;62438;52.228;6.864;2022-12-07T08:46:47;2.54;99.99
74081;SHT31;62438;52.228;6.864;2022-12-07T08:50:51;2.58;99.93
74081;SHT31;62438;52.228;6.864;2022-12-07T08:52:54;2.63;99.69
74081;SHT31;62438;52.228;6.864;2022-12-07T08:54:55;2.63;99.73
74081;SHT31;62438;52.228;6.864;2022-12-07T08:56:56;2.64;99.72
74081;SHT31;62438;52.228;6.864;2022-12-07T08:58:57;2.68;99.84
74081;SHT31;62438;52.228;6.864;2022-12-07T09:00:58;2.70;99.87
74081;SHT31;62438;52.228;6.864;2022-12-07T09:02:58;2.77;99.69
74081;SHT31;62438;52.228;6.864;2022-12-07T09:04:58;2.77;99.71
74081;SHT31;62438;52.228;6.864;2022-12-07T09:06:59;2.84;99.42
74081;SHT31;62438;52.228;6.864;2022-12-07T09:09:01;2.76;99.55
74081;SHT31;62438;52.228;6.864;2022-12-07T09:11:01;2.83;99.49
74081;SHT31;62438;52.228;6.864;2022-12-07T09:13:02;2.84;99.31
74081;SHT31;62438;52.228;6.864;2022-12-07T09:15:02;2.76;99.35
74081;SHT31;62438;52.228;6.864;2022-12-07T09:17:07;2.74;99.51
74081;SHT31;62438;52.228;6.864;2022-12-07T09:19:08;2.79;99.42
74081;SHT31;62438;52.228;6.864;2022-12-07T09:21:09;2.80;99.42
74081;SHT31;62438;52.228;6.864;2022-12-07T09:23:09;2.87;99.38
74081;SHT31;62438;52.228;6.864;2022-12-07T09:25:10;3.05;99.55
74081;SHT31;62438;52.228;6.864;2022-12-07T09:27:11;3.25;99.27
74081;SHT31;62438;52.228;6.864;2022-12-07T09:29:11;3.40;98.52
74081;SHT31;62438;52.228;6.864;2022-12-07T09:31:11;3.52;97.89
74081;SHT31;62438;52.228;6.864;2022-12-07T09:33:12;3.56;97.62
74081;SHT31;62438;52.228;6.864;2022-12-07T09:35:13;3.48;97.38
74081;SHT31;62438;52.228;6.864;2022-12-07T09:37:13;3.53;97.41
74081;SHT31;62438;52.228;6.864;2022-12-07T09:39:14;3.49;97.37
74081;SHT31;62438;52.228;6.864;2022-12-07T09:41:14;3.53;97.85
74081;SHT31;62438;52.228;6.864;2022-12-07T09:43:21;3.46;97.82
74081;SHT31;62438;52.228;6.864;2022-12-07T09:45:35;3.40;98.02
74081;SHT31;62438;52.228;6.864;2022-12-07T09:47:36;3.48;97.82
74081;SHT31;62438;52.228;6.864;2022-12-07T09:49:36;3.48;97.85
74081;SHT31;62438;52.228;6.864;2022-12-07T09:51:37;3.59;97.71
74081;SHT31;62438;52.228;6.864;2022-12-07T09:53:38;3.62;97.59
74081;SHT31;62438;52.228;6.864;2022-12-07T09:55:40;3.64;97.36
74081;SHT31;62438;52.228;6.864;2022-12-07T09:57:41;3.77;97.32
74081;SHT31;62438;52.228;6.864;2022-12-07T09:59:42;3.82;97.29
74081;SHT31;62438;52.228;6.864;2022-12-07T10:01:43;3.86;97.09
74081;SHT31;62438;52.228;6.864;2022-12-07T10:03:52;3.93;97.07
74081;SHT31;62438;52.228;6.864;2022-12-07T10:05:53;4.03;96.60
74081;SHT31;62438;52.228;6.864;2022-12-07T10:07:53;3.98;96.92
74081;SHT31;62438;52.228;6.864;2022-12-07T10:09:54;4.04;96.58
74081;SHT31;62438;52.228;6.864;2022-12-07T10:11:59;4.12;96.24
74081;SHT31;62438;52.228;6.864;2022-12-07T10:14:11;4.14;96.80
74081;SHT31;62438;52.228;6.864;2022-12-07T10:16:40;4.12;96.23
74081;SHT31;62438;52.228;6.864;2022-12-07T10:18:41;4.11;96.86
74081;SHT31;62438;52.228;6.864;2022-12-07T10:20:42;4.15;96.28
74081;SHT31;62438;52.228;6.864;2022-12-07T10:22:59;4.14;96.40
74081;SHT31;62438;52.228;6.864;2022-12-07T10:25:08;4.32;95.93
74081;SHT31;62438;52.228;6.864;2022-12-07T10:27:41;4.52;95.76
74081;SHT31;62438;52.228;6.864;2022-12-07T10:29:47;4.68;95.36
74081;SHT31;62438;52.228;6.864;2022-12-07T10:32:00;4.65;94.69
74081;SHT31;62438;52.228;6.864;2022-12-07T10:34:01;4.63;94.58
74081;SHT31;62438;52.228;6.864;2022-12-07T10:36:25;4.53;94.82
74081;SHT31;62438;52.228;6.864;2022-12-07T10:38:28;4.52;94.74
74081;SHT31;62438;52.228;6.864;2022-12-07T10:40:35;4.45;94.71
74081;SHT31;62438;52.228;6.864;2022-12-07T10:42:36;4.55;94.53
74081;SHT31;62438;52.228;6.864;2022-12-07T10:44:36;4.49;94.53
74081;SHT31;62438;52.228;6.864;2022-12-07T10:46:48;4.53;93.75
74081;SHT31;62438;52.228;6.864;2022-12-07T10:51:27;4.75;93.64
74081;SHT31;62438;52.228;6.864;2022-12-07T11:00:36;4.87;92.64
74081;SHT31;62438;52.228;6.864;2022-12-07T11:16:24;6.26;87.92
74081;SHT31;62438;52.228;6.864;2022-12-07T11:18:32;6.17;87.51
74081;SHT31;62438;52.228;6.864;2022-12-07T11:25:52;6.23;88.63
74081;SHT31;62438;52.228;6.864;2022-12-07T11:30:03;6.19;88.38
74081;SHT31;62438;52.228;6.864;2022-12-07T11:32:18;6.41;86.45
74081;SHT31;62438;52.228;6.864;2022-12-07T11:34:43;6.67;85.59
74081;SHT31;62438;52.228;6.864;2022-12-07T11:36:48;6.47;86.17
74081;SHT31;62438;52.228;6.864;2022-12-07T11:38:53;6.27;86.75
74081;SHT31;62438;52.228;6.864;2022-12-07T11:41:01;6.05;87.67
74081;SHT31;62438;52.228;6.864;2022-12-07T11:46:08;5.73;88.09
74081;SHT31;62438;52.228;6.864;2022-12-07T11:48:15;5.62;89.06
74081;SHT31;62438;52.228;6.864;2022-12-07T11:50:30;5.51;89.29
74081;SHT31;62438;52.228;6.864;2022-12-07T11:52:40;5.49;89.36
74081;SHT31;62438;52.228;6.864;2022-12-07T11:54:45;5.37;90.39
74081;SHT31;62438;52.228;6.864;2022-12-07T11:56:48;5.31;90.26
74081;SHT31;62438;52.228;6.864;2022-12-07T12:03:22;5.28;89.37
74081;SHT31;62438;52.228;6.864;2022-12-07T12:05:30;5.35;88.96
74081;SHT31;62438;52.228;6.864;2022-12-07T12:07:31;5.48;88.73
74081;SHT31;62438;52.228;6.864;2022-12-07T12:09:33;5.63;87.74
74081;SHT31;62438;52.228;6.864;2022-12-07T12:14:22;5.63;87.66
74081;SHT31;62438;52.228;6.864;2022-12-07T12:16:48;5.69;88.02
74081;SHT31;62438;52.228;6.864;2022-12-07T12:19:06;5.70;87.45
74081;SHT31;62438;52.228;6.864;2022-12-07T12:21:14;5.65;87.69
74081;SHT31;62438;52.228;6.864;2022-12-07T12:23:27;5.58;87.35
74081;SHT31;62438;52.228;6.864;2022-12-07T12:25:34;5.56;87.47
74081;SHT31;62438;52.228;6.864;2022-12-07T12:27:39;5.61;87.97
74081;SHT31;62438;52.228;6.864;2022-12-07T12:29:40;5.65;87.69
74081;SHT31;62438;52.228;6.864;2022-12-07T12:31:41;5.69;87.34
74081;SHT31;62438;52.228;6.864;2022-12-07T12:33:50;5.72;87.64
74081;SHT31;62438;52.228;6.864;2022-12-07T12:36:17;5.69;86.41
74081;SHT31;62438;52.228;6.864;2022-12-07T12:38:31;5.65;87.72
74081;SHT31;62438;52.228;6.864;2022-12-07T12:40:39;5.66;87.34
74081;SHT31;62438;52.228;6.864;2022-12-07T12:42:55;5.62;88.25
74081;SHT31;62438;52.228;6.864;2022-12-07T12:45:04;5.66;88.05
74081;SHT31;62438;52.228;6.864;2022-12-07T12:47:40;5.66;87.85
74081;SHT31;62438;52.228;6.864;2022-12-07T12:49:41;5.63;87.86
74081;SHT31;62438;52.228;6.864;2022-12-07T12:51:46;5.62;87.89
74081;SHT31;62438;52.228;6.864;2022-12-07T12:53:47;5.62;88.67
74081;SHT31;62438;52.228;6.864;2022-12-07T13:00:20;5.55;88.32
74081;SHT31;62438;52.228;6.864;2022-12-07T13:02:24;5.55;88.59
74081;SHT31;62438;52.228;6.864;2022-12-07T13:04:30;5.55;89.06
74081;SHT31;62438;52.228;6.864;2022-12-07T13:06:36;5.51;89.74
74081;SHT31;62438;52.228;6.864;2022-12-07T13:08:40;5.45;90.54
74081;SHT31;62438;52.228;6.864;2022-12-07T13:10:43;5.40;91.13
74081;SHT31;62438;52.228;6.864;2022-12-07T13:13:02;5.34;90.86
74081;SHT31;62438;52.228;6.864;2022-12-07T13:15:03;5.34;92.09
74081;SHT31;62438;52.228;6.864;2022-12-07T13:21:42;5.11;92.86
74081;SHT31;62438;52.228;6.864;2022-12-07T13:28:19;5.27;92.38
74081;SHT31;62438;52.228;6.864;2022-12-07T13:30:22;5.37;92.35
74081;SHT31;62438;52.228;6.864;2022-12-07T13:32:27;5.40;92.20
74081;SHT31;62438;52.228;6.864;2022-12-07T13:34:34;5.42;91.92
74081;SHT31;62438;52.228;6.864;2022-12-07T13:36:38;5.44;90.92
74081;SHT31;62438;52.228;6.864;2022-12-07T13:38:48;5.40;91.04
74081;SHT31;62438;52.228;6.864;2022-12-07T13:41:00;5.40;89.93
74081;SHT31;62438;52.228;6.864;2022-12-07T13:43:04;5.37;91.50
74081;SHT31;62438;52.228;6.864;2022-12-07T13:45:25;5.30;91.60
74081;SHT31;62438;52.228;6.864;2022-12-07T13:47:49;5.28;90.91
74081;SHT31;62438;52.228;6.864;2022-12-07T13:49:54;5.31;90.46
74081;SHT31;62438;52.228;6.864;2022-12-07T13:52:06;5.31;90.20
74081;SHT31;62438;52.228;6.864;2022-12-07T13:54:11;5.28;90.51
74081;SHT31;62438;52.228;6.864;2022-12-07T13:56:14;5.26;90.39
74081;SHT31;62438;52.228;6.864;2022-12-07T13:58:15;5.17;91.28
74081;SHT31;62438;52.228;6.864;2022-12-07T14:00:19;5.21;90.77
74081;SHT31;62438;52.228;6.864;2022-12-07T14:02:31;5.26;90.55
74081;SHT31;62438;52.228;6.864;2022-12-07T14:04:35;5.30;90.59
74081;SHT31;62438;52.228;6.864;2022-12-07T14:06:35;5.24;90.68
74081;SHT31;62438;52.228;6.864;2022-12-07T14:08:36;5.24;91.04
74081;SHT31;62438;52.228;6.864;2022-12-07T14:10:53;5.23;91.52
74081;SHT31;62438;52.228;6.864;2022-12-07T14:12:56;5.23;91.81
74081;SHT31;62438;52.228;6.864;2022-12-07T14:14:58;5.23;92.21
74081;SHT31;62438;52.228;6.864;2022-12-07T14:17:10;5.27;91.88
74081;SHT31;62438;52.228;6.864;2022-12-07T14:19:44;5.31;92.09
74081;SHT31;62438;52.228;6.864;2022-12-07T14:21:44;5.31;92.60
74081;SHT31;62438;52.228;6.864;2022-12-07T14:24:08;5.40;91.73
74081;SHT31;62438;52.228;6.864;2022-12-07T14:26:19;5.37;91.97
74081;SHT31;62438;52.228;6.864;2022-12-07T14:28:31;5.40;92.42
74081;SHT31;62438;52.228;6.864;2022-12-07T14:30:33;5.31;92.65
74081;SHT31;62438;52.228;6.864;2022-12-07T14:32:36;5.30;92.38
74081;SHT31;62438;52.228;6.864;2022-12-07T14:34:37;5.27;92.61
74081;SHT31;62438;52.228;6.864;2022-12-07T14:36:37;5.26;93.03
74081;SHT31;62438;52.228;6.864;2022-12-07T14:38:38;5.35;91.96
74081;SHT31;62438;52.228;6.864;2022-12-07T14:40:39;5.30;92.65
74081;SHT31;62438;52.228;6.864;2022-12-07T14:42:41;5.34;92.24